?akovec Pribisla Airport


Codes: LDVC/
Name: ?akovec Pribisla Airport
City: ?akovec
Country: Croatia
Elevation: 512 ft.

Photos at ?akovec Pribisla Airport


   Photos courtesy of SpottingLog. You can add your own sightings and photos by signing up for a free trial today.



No photos found.

Weather at ?akovec Pribisla Airport


Time (UTC)DescriptionTempratureWindCloud coverageVisibilityPressureHumidity
19-Apr-2024 06:00Few Clouds1°C4 mph, NW19%10000m1016hPa65%
19-Apr-2024 09:00Scattered Clouds7°C2 mph, SW27%10000m1016hPa51%
19-Apr-2024 12:00Broken Clouds13°C4 mph, S57%10000m1014hPa33%
19-Apr-2024 15:00Overcast Clouds13°C9 mph, S85%10000m1012hPa35%
19-Apr-2024 18:00Broken Clouds8°C7 mph, S84%10000m1010hPa55%
19-Apr-2024 21:00Broken Clouds6°C7 mph, S52%10000m1010hPa57%
20-Apr-2024 00:00Broken Clouds5°C7 mph, S65%10000m1008hPa60%
20-Apr-2024 03:00Overcast Clouds4°C2 mph, SW94%10000m1008hPa71%
20-Apr-2024 06:00Overcast Clouds6°C4 mph, N97%10000m1010hPa70%
20-Apr-2024 09:00Light Rain9°C13 mph, NE100%10000m1012hPa71%
20-Apr-2024 12:00Light Rain10°C7 mph, E100%10000m1013hPa69%
20-Apr-2024 15:00Light Rain9°C7 mph, N100%10000m1014hPa76%
20-Apr-2024 18:00Light Rain6°C11 mph, NE100%10000m1015hPa81%
20-Apr-2024 21:00Overcast Clouds5°C16 mph, N100%10000m1016hPa74%
21-Apr-2024 00:00Overcast Clouds4°C16 mph, N100%10000m1016hPa74%
21-Apr-2024 03:00Overcast Clouds4°C16 mph, N100%10000m1016hPa74%
21-Apr-2024 06:00Overcast Clouds5°C20 mph, N100%10000m1016hPa69%
21-Apr-2024 09:00Overcast Clouds6°C18 mph, N100%10000m1017hPa63%
21-Apr-2024 12:00Light Rain7°C18 mph, N100%10000m1016hPa58%
21-Apr-2024 15:00Light Rain7°C18 mph, N100%10000m1016hPa58%
21-Apr-2024 18:00Overcast Clouds7°C18 mph, N100%10000m1017hPa55%
21-Apr-2024 21:00Overcast Clouds6°C18 mph, N100%10000m1018hPa57%
22-Apr-2024 00:00Overcast Clouds5°C18 mph, N100%10000m1018hPa59%
22-Apr-2024 03:00Light Rain4°C16 mph, N100%10000m1019hPa62%
22-Apr-2024 06:00Overcast Clouds4°C13 mph, N100%10000m1020hPa60%
22-Apr-2024 09:00Overcast Clouds5°C16 mph, N100%10000m1021hPa57%
22-Apr-2024 12:00Overcast Clouds8°C11 mph, N100%10000m1021hPa52%
22-Apr-2024 15:00Overcast Clouds9°C9 mph, NE100%10000m1020hPa49%
22-Apr-2024 18:00Overcast Clouds5°C4 mph, E96%10000m1021hPa66%
22-Apr-2024 21:00Few Clouds3°C0 mph, NE17%10000m1022hPa74%
23-Apr-2024 00:00Few Clouds1°C2 mph, NW12%10000m1021hPa79%
23-Apr-2024 03:00Scattered Clouds0°C2 mph, NW30%10000m1020hPa84%
23-Apr-2024 06:00Broken Clouds4°C2 mph, NE57%10000m1019hPa67%
23-Apr-2024 09:00Overcast Clouds9°C9 mph, E90%10000m1016hPa57%
23-Apr-2024 12:00Overcast Clouds8°C9 mph, NE95%10000m1014hPa64%
23-Apr-2024 15:00Overcast Clouds8°C7 mph, NE100%10000m1011hPa70%
23-Apr-2024 18:00Light Rain6°C7 mph, NE100%10000m1009hPa90%
23-Apr-2024 21:00Moderate Rain6°C4 mph, N100%10000m1008hPa96%
24-Apr-2024 00:00Light Rain6°C11 mph, N100%10000m1006hPa94%
24-Apr-2024 03:00Light Rain6°C11 mph, N100%10000m1005hPa93%